sensor_id;sensor_type;location;lat;lon;timestamp;P1;durP1;ratioP1;P2;durP2;ratioP2
47912;SDS011;33676;51.006;17.180;2023-01-29T00:00:15;5.90;;;5.30;;
47912;SDS011;33676;51.006;17.180;2023-01-29T00:03:04;7.70;;;5.20;;
47912;SDS011;33676;51.006;17.180;2023-01-29T00:05:33;8.00;;;5.00;;
47912;SDS011;33676;51.006;17.180;2023-01-29T00:08:02;9.10;;;7.00;;
47912;SDS011;33676;51.006;17.180;2023-01-29T00:10:31;7.00;;;5.90;;
47912;SDS011;33676;51.006;17.180;2023-01-29T00:12:59;7.90;;;6.00;;
47912;SDS011;33676;51.006;17.180;2023-01-29T00:15:27;6.20;;;5.60;;
47912;SDS011;33676;51.006;17.180;2023-01-29T00:17:56;8.50;;;6.30;;
47912;SDS011;33676;51.006;17.180;2023-01-29T00:20:24;8.50;;;5.80;;
47912;SDS011;33676;51.006;17.180;2023-01-29T00:22:52;8.70;;;6.50;;
47912;SDS011;33676;51.006;17.180;2023-01-29T00:25:21;6.10;;;5.10;;
47912;SDS011;33676;51.006;17.180;2023-01-29T00:27:50;7.30;;;6.10;;
47912;SDS011;33676;51.006;17.180;2023-01-29T00:30:19;10.00;;;7.20;;
47912;SDS011;33676;51.006;17.180;2023-01-29T00:32:48;9.50;;;6.70;;
47912;SDS011;33676;51.006;17.180;2023-01-29T00:35:16;8.00;;;7.20;;
47912;SDS011;33676;51.006;17.180;2023-01-29T00:37:45;9.20;;;8.10;;
47912;SDS011;33676;51.006;17.180;2023-01-29T00:40:13;11.80;;;7.80;;
47912;SDS011;33676;51.006;17.180;2023-01-29T00:42:43;11.50;;;9.00;;
47912;SDS011;33676;51.006;17.180;2023-01-29T00:45:31;11.80;;;7.80;;
47912;SDS011;33676;51.006;17.180;2023-01-29T00:47:59;11.60;;;8.70;;
47912;SDS011;33676;51.006;17.180;2023-01-29T00:50:28;13.10;;;8.60;;
47912;SDS011;33676;51.006;17.180;2023-01-29T00:52:57;11.90;;;9.20;;
47912;SDS011;33676;51.006;17.180;2023-01-29T00:55:25;14.90;;;9.30;;
47912;SDS011;33676;51.006;17.180;2023-01-29T00:57:53;18.70;;;10.70;;
47912;SDS011;33676;51.006;17.180;2023-01-29T01:00:22;18.20;;;11.10;;
47912;SDS011;33676;51.006;17.180;2023-01-29T01:02:55;18.10;;;11.40;;
47912;SDS011;33676;51.006;17.180;2023-01-29T01:05:33;15.50;;;9.90;;
47912;SDS011;33676;51.006;17.180;2023-01-29T01:08:02;13.60;;;9.50;;
47912;SDS011;33676;51.006;17.180;2023-01-29T01:10:31;10.20;;;9.00;;
47912;SDS011;33676;51.006;17.180;2023-01-29T01:13:04;11.40;;;7.60;;
47912;SDS011;33676;51.006;17.180;2023-01-29T01:15:37;14.00;;;8.90;;
47912;SDS011;33676;51.006;17.180;2023-01-29T01:18:07;9.70;;;8.00;;
47912;SDS011;33676;51.006;17.180;2023-01-29T01:20:35;13.00;;;9.20;;
47912;SDS011;33676;51.006;17.180;2023-01-29T01:23:04;9.40;;;7.60;;
47912;SDS011;33676;51.006;17.180;2023-01-29T01:25:32;14.60;;;9.60;;
47912;SDS011;33676;51.006;17.180;2023-01-29T01:28:01;11.30;;;8.40;;
47912;SDS011;33676;51.006;17.180;2023-01-29T01:30:29;11.80;;;8.50;;
47912;SDS011;33676;51.006;17.180;2023-01-29T01:32:57;13.40;;;8.50;;
47912;SDS011;33676;51.006;17.180;2023-01-29T01:35:26;14.00;;;8.80;;
47912;SDS011;33676;51.006;17.180;2023-01-29T01:37:54;12.50;;;8.80;;
47912;SDS011;33676;51.006;17.180;2023-01-29T01:40:24;13.10;;;9.90;;
47912;SDS011;33676;51.006;17.180;2023-01-29T01:42:55;11.10;;;8.30;;
47912;SDS011;33676;51.006;17.180;2023-01-29T01:45:33;15.50;;;9.80;;
47912;SDS011;33676;51.006;17.180;2023-01-29T01:48:16;15.60;;;10.00;;
47912;SDS011;33676;51.006;17.180;2023-01-29T01:53:28;11.10;;;8.40;;
47912;SDS011;33676;51.006;17.180;2023-01-29T01:56:10;11.90;;;9.60;;
47912;SDS011;33676;51.006;17.180;2023-01-29T01:58:44;13.00;;;8.80;;
47912;SDS011;33676;51.006;17.180;2023-01-29T02:01:17;11.60;;;8.30;;
47912;SDS011;33676;51.006;17.180;2023-01-29T02:03:59;13.30;;;10.30;;
47912;SDS011;33676;51.006;17.180;2023-01-29T02:06:51;11.60;;;10.20;;
47912;SDS011;33676;51.006;17.180;2023-01-29T02:10:07;14.00;;;9.70;;
47912;SDS011;33676;51.006;17.180;2023-01-29T02:12:37;12.70;;;9.60;;
47912;SDS011;33676;51.006;17.180;2023-01-29T02:15:06;15.10;;;9.80;;
47912;SDS011;33676;51.006;17.180;2023-01-29T02:17:35;15.50;;;10.30;;
47912;SDS011;33676;51.006;17.180;2023-01-29T02:20:26;13.00;;;9.20;;
47912;SDS011;33676;51.006;17.180;2023-01-29T02:29:01;13.40;;;5.90;;
47912;SDS011;33676;51.006;17.180;2023-01-29T02:31:58;6.70;;;5.70;;
47912;SDS011;33676;51.006;17.180;2023-01-29T02:34:51;8.00;;;7.00;;
47912;SDS011;33676;51.006;17.180;2023-01-29T02:38:12;7.00;;;6.30;;
47912;SDS011;33676;51.006;17.180;2023-01-29T02:52:38;5.60;;;5.00;;
47912;SDS011;33676;51.006;17.180;2023-01-29T02:55:41;9.60;;;5.80;;
47912;SDS011;33676;51.006;17.180;2023-01-29T02:58:18;7.30;;;4.90;;
47912;SDS011;33676;51.006;17.180;2023-01-29T03:00:53;5.30;;;4.80;;
47912;SDS011;33676;51.006;17.180;2023-01-29T03:03:29;8.10;;;5.90;;
47912;SDS011;33676;51.006;17.180;2023-01-29T03:06:09;7.30;;;6.00;;
47912;SDS011;33676;51.006;17.180;2023-01-29T03:08:59;11.60;;;6.00;;
47912;SDS011;33676;51.006;17.180;2023-01-29T03:11:34;7.70;;;6.60;;
47912;SDS011;33676;51.006;17.180;2023-01-29T03:14:13;6.00;;;5.40;;
47912;SDS011;33676;51.006;17.180;2023-01-29T03:19:37;6.00;;;5.50;;
47912;SDS011;33676;51.006;17.180;2023-01-29T03:22:08;8.10;;;5.40;;
47912;SDS011;33676;51.006;17.180;2023-01-29T03:24:54;7.30;;;4.80;;
47912;SDS011;33676;51.006;17.180;2023-01-29T03:27:58;6.50;;;5.80;;
47912;SDS011;33676;51.006;17.180;2023-01-29T03:30:55;7.60;;;6.00;;
47912;SDS011;33676;51.006;17.180;2023-01-29T03:34:08;12.00;;;7.50;;
47912;SDS011;33676;51.006;17.180;2023-01-29T03:36:54;14.90;;;8.90;;
47912;SDS011;33676;51.006;17.180;2023-01-29T03:39:27;10.70;;;8.20;;
47912;SDS011;33676;51.006;17.180;2023-01-29T03:42:24;11.70;;;7.10;;
47912;SDS011;33676;51.006;17.180;2023-01-29T03:47:50;9.70;;;7.00;;
47912;SDS011;33676;51.006;17.180;2023-01-29T03:57:13;11.30;;;7.90;;
47912;SDS011;33676;51.006;17.180;2023-01-29T03:59:55;13.40;;;7.80;;
47912;SDS011;33676;51.006;17.180;2023-01-29T04:02:36;13.50;;;8.30;;
47912;SDS011;33676;51.006;17.180;2023-01-29T04:05:13;8.50;;;6.70;;
47912;SDS011;33676;51.006;17.180;2023-01-29T04:07:47;17.10;;;9.10;;
47912;SDS011;33676;51.006;17.180;2023-01-29T04:10:24;8.30;;;6.20;;
47912;SDS011;33676;51.006;17.180;2023-01-29T04:12:57;7.90;;;5.40;;
47912;SDS011;33676;51.006;17.180;2023-01-29T04:15:30;8.30;;;6.40;;
47912;SDS011;33676;51.006;17.180;2023-01-29T04:18:03;8.10;;;5.50;;
47912;SDS011;33676;51.006;17.180;2023-01-29T04:20:33;8.50;;;5.50;;
47912;SDS011;33676;51.006;17.180;2023-01-29T04:23:05;7.50;;;5.50;;
47912;SDS011;33676;51.006;17.180;2023-01-29T04:25:41;7.40;;;5.80;;
47912;SDS011;33676;51.006;17.180;2023-01-29T04:28:27;6.60;;;5.60;;
47912;SDS011;33676;51.006;17.180;2023-01-29T04:31:14;7.20;;;4.50;;
47912;SDS011;33676;51.006;17.180;2023-01-29T04:33:51;12.80;;;8.00;;
47912;SDS011;33676;51.006;17.180;2023-01-29T04:39:58;7.90;;;5.70;;
47912;SDS011;33676;51.006;17.180;2023-01-29T04:42:52;6.90;;;4.80;;
47912;SDS011;33676;51.006;17.180;2023-01-29T04:51:42;7.30;;;5.70;;
47912;SDS011;33676;51.006;17.180;2023-01-29T04:54:25;6.80;;;6.10;;
47912;SDS011;33676;51.006;17.180;2023-01-29T04:57:17;6.50;;;4.80;;
47912;SDS011;33676;51.006;17.180;2023-01-29T04:59:55;5.10;;;4.60;;
47912;SDS011;33676;51.006;17.180;2023-01-29T05:02:29;8.20;;;5.50;;
47912;SDS011;33676;51.006;17.180;2023-01-29T05:05:01;8.40;;;5.60;;
47912;SDS011;33676;51.006;17.180;2023-01-29T05:07:30;5.80;;;4.80;;
47912;SDS011;33676;51.006;17.180;2023-01-29T05:10:04;6.50;;;5.60;;
47912;SDS011;33676;51.006;17.180;2023-01-29T05:12:36;6.20;;;5.50;;
47912;SDS011;33676;51.006;17.180;2023-01-29T05:15:08;8.30;;;5.90;;
47912;SDS011;33676;51.006;17.180;2023-01-29T05:17:41;7.00;;;6.40;;
47912;SDS011;33676;51.006;17.180;2023-01-29T05:20:10;7.70;;;5.70;;
47912;SDS011;33676;51.006;17.180;2023-01-29T05:22:41;6.20;;;5.30;;
47912;SDS011;33676;51.006;17.180;2023-01-29T05:25:23;7.10;;;6.40;;
47912;SDS011;33676;51.006;17.180;2023-01-29T05:27:53;6.30;;;5.70;;
47912;SDS011;33676;51.006;17.180;2023-01-29T05:30:39;7.30;;;6.00;;
47912;SDS011;33676;51.006;17.180;2023-01-29T05:33:14;5.80;;;5.20;;
47912;SDS011;33676;51.006;17.180;2023-01-29T05:35:43;6.70;;;5.10;;
47912;SDS011;33676;51.006;17.180;2023-01-29T05:38:12;5.60;;;5.10;;
47912;SDS011;33676;51.006;17.180;2023-01-29T05:40:40;5.60;;;4.80;;
47912;SDS011;33676;51.006;17.180;2023-01-29T05:43:17;5.30;;;4.80;;
47912;SDS011;33676;51.006;17.180;2023-01-29T05:45:54;6.30;;;5.70;;
47912;SDS011;33676;51.006;17.180;2023-01-29T05:48:25;6.00;;;5.40;;
47912;SDS011;33676;51.006;17.180;2023-01-29T05:51:03;6.90;;;5.40;;
47912;SDS011;33676;51.006;17.180;2023-01-29T05:53:32;5.20;;;4.80;;
47912;SDS011;33676;51.006;17.180;2023-01-29T05:56:02;7.70;;;5.80;;
47912;SDS011;33676;51.006;17.180;2023-01-29T05:58:32;7.40;;;6.20;;
47912;SDS011;33676;51.006;17.180;2023-01-29T06:01:26;6.80;;;5.20;;
47912;SDS011;33676;51.006;17.180;2023-01-29T06:03:55;6.00;;;5.40;;
47912;SDS011;33676;51.006;17.180;2023-01-29T06:06:23;9.80;;;6.10;;
47912;SDS011;33676;51.006;17.180;2023-01-29T06:08:52;6.60;;;6.00;;
47912;SDS011;33676;51.006;17.180;2023-01-29T06:11:20;6.30;;;5.60;;
47912;SDS011;33676;51.006;17.180;2023-01-29T06:13:49;7.00;;;5.10;;
47912;SDS011;33676;51.006;17.180;2023-01-29T06:16:17;5.80;;;4.90;;
47912;SDS011;33676;51.006;17.180;2023-01-29T06:18:46;6.70;;;5.40;;
47912;SDS011;33676;51.006;17.180;2023-01-29T06:21:14;8.10;;;5.50;;
47912;SDS011;33676;51.006;17.180;2023-01-29T06:23:45;6.90;;;5.70;;
47912;SDS011;33676;51.006;17.180;2023-01-29T06:26:14;5.90;;;4.60;;
47912;SDS011;33676;51.006;17.180;2023-01-29T06:28:43;6.40;;;5.70;;
47912;SDS011;33676;51.006;17.180;2023-01-29T06:31:13;5.50;;;5.00;;
47912;SDS011;33676;51.006;17.180;2023-01-29T06:34:01;6.10;;;5.40;;
47912;SDS011;33676;51.006;17.180;2023-01-29T06:36:30;8.50;;;5.70;;
47912;SDS011;33676;51.006;17.180;2023-01-29T06:38:59;7.10;;;5.90;;
47912;SDS011;33676;51.006;17.180;2023-01-29T06:41:27;7.70;;;5.90;;
47912;SDS011;33676;51.006;17.180;2023-01-29T06:43:56;6.30;;;5.70;;
47912;SDS011;33676;51.006;17.180;2023-01-29T06:46:24;6.10;;;5.50;;
47912;SDS011;33676;51.006;17.180;2023-01-29T06:48:52;6.40;;;5.90;;
47912;SDS011;33676;51.006;17.180;2023-01-29T06:51:21;6.50;;;5.80;;
47912;SDS011;33676;51.006;17.180;2023-01-29T06:53:50;6.70;;;4.90;;
47912;SDS011;33676;51.006;17.180;2023-01-29T06:56:18;5.70;;;5.10;;
47912;SDS011;33676;51.006;17.180;2023-01-29T06:58:47;5.00;;;4.60;;
47912;SDS011;33676;51.006;17.180;2023-01-29T07:01:15;6.20;;;5.20;;
47912;SDS011;33676;51.006;17.180;2023-01-29T07:04:02;5.60;;;5.10;;
47912;SDS011;33676;51.006;17.180;2023-01-29T07:06:31;8.00;;;6.10;;
47912;SDS011;33676;51.006;17.180;2023-01-29T07:09:02;7.70;;;5.10;;
47912;SDS011;33676;51.006;17.180;2023-01-29T07:11:32;6.40;;;4.70;;
47912;SDS011;33676;51.006;17.180;2023-01-29T07:14:01;8.80;;;5.30;;
47912;SDS011;33676;51.006;17.180;2023-01-29T07:16:30;7.70;;;5.70;;
47912;SDS011;33676;51.006;17.180;2023-01-29T07:19:00;6.90;;;5.80;;
47912;SDS011;33676;51.006;17.180;2023-01-29T07:21:28;7.20;;;5.30;;
47912;SDS011;33676;51.006;17.180;2023-01-29T07:23:56;6.60;;;5.40;;
47912;SDS011;33676;51.006;17.180;2023-01-29T07:26:25;8.80;;;5.70;;
47912;SDS011;33676;51.006;17.180;2023-01-29T07:28:53;7.70;;;5.20;;
47912;SDS011;33676;51.006;17.180;2023-01-29T07:31:22;8.80;;;6.80;;
47912;SDS011;33676;51.006;17.180;2023-01-29T07:33:50;7.70;;;5.90;;
47912;SDS011;33676;51.006;17.180;2023-01-29T07:36:19;6.70;;;5.90;;
47912;SDS011;33676;51.006;17.180;2023-01-29T07:38:50;6.50;;;5.70;;
47912;SDS011;33676;51.006;17.180;2023-01-29T07:41:18;9.50;;;6.80;;
47912;SDS011;33676;51.006;17.180;2023-01-29T07:43:47;8.30;;;6.70;;
47912;SDS011;33676;51.006;17.180;2023-01-29T07:46:15;7.00;;;5.80;;
47912;SDS011;33676;51.006;17.180;2023-01-29T07:48:44;8.00;;;6.70;;
47912;SDS011;33676;51.006;17.180;2023-01-29T07:51:12;7.60;;;6.20;;
47912;SDS011;33676;51.006;17.180;2023-01-29T07:53:41;10.80;;;7.20;;
47912;SDS011;33676;51.006;17.180;2023-01-29T07:56:11;11.10;;;8.80;;
47912;SDS011;33676;51.006;17.180;2023-01-29T07:58:39;11.50;;;8.20;;
47912;SDS011;33676;51.006;17.180;2023-01-29T08:01:08;14.10;;;11.20;;
47912;SDS011;33676;51.006;17.180;2023-01-29T08:03:36;10.30;;;8.40;;
47912;SDS011;33676;51.006;17.180;2023-01-29T08:06:05;10.70;;;8.30;;
47912;SDS011;33676;51.006;17.180;2023-01-29T08:08:34;18.00;;;12.40;;
47912;SDS011;33676;51.006;17.180;2023-01-29T08:11:03;21.70;;;14.20;;
47912;SDS011;33676;51.006;17.180;2023-01-29T08:13:32;30.70;;;16.50;;
47912;SDS011;33676;51.006;17.180;2023-01-29T08:16:02;11.70;;;8.20;;
47912;SDS011;33676;51.006;17.180;2023-01-29T08:18:30;12.60;;;9.10;;
47912;SDS011;33676;51.006;17.180;2023-01-29T08:21:00;14.10;;;10.90;;
47912;SDS011;33676;51.006;17.180;2023-01-29T08:23:29;13.30;;;7.90;;
47912;SDS011;33676;51.006;17.180;2023-01-29T08:25:57;8.70;;;7.20;;
47912;SDS011;33676;51.006;17.180;2023-01-29T08:28:26;16.20;;;10.60;;
47912;SDS011;33676;51.006;17.180;2023-01-29T08:30:54;12.10;;;8.10;;
47912;SDS011;33676;51.006;17.180;2023-01-29T08:33:23;9.70;;;7.60;;
47912;SDS011;33676;51.006;17.180;2023-01-29T08:36:06;21.80;;;12.70;;
47912;SDS011;33676;51.006;17.180;2023-01-29T08:38:35;24.70;;;13.50;;
47912;SDS011;33676;51.006;17.180;2023-01-29T08:41:05;12.80;;;9.10;;
47912;SDS011;33676;51.006;17.180;2023-01-29T08:43:34;11.50;;;8.60;;
47912;SDS011;33676;51.006;17.180;2023-01-29T08:46:06;9.40;;;7.40;;
47912;SDS011;33676;51.006;17.180;2023-01-29T08:48:35;9.40;;;7.60;;
47912;SDS011;33676;51.006;17.180;2023-01-29T08:51:04;8.50;;;7.30;;
47912;SDS011;33676;51.006;17.180;2023-01-29T08:53:32;12.30;;;7.80;;
47912;SDS011;33676;51.006;17.180;2023-01-29T08:56:00;7.70;;;6.80;;
47912;SDS011;33676;51.006;17.180;2023-01-29T08:58:29;9.50;;;8.00;;
47912;SDS011;33676;51.006;17.180;2023-01-29T09:01:05;7.90;;;6.90;;
47912;SDS011;33676;51.006;17.180;2023-01-29T09:03:37;7.60;;;6.90;;
47912;SDS011;33676;51.006;17.180;2023-01-29T09:06:09;9.80;;;7.00;;
47912;SDS011;33676;51.006;17.180;2023-01-29T09:08:40;10.70;;;7.30;;
47912;SDS011;33676;51.006;17.180;2023-01-29T09:11:09;8.80;;;6.70;;
47912;SDS011;33676;51.006;17.180;2023-01-29T09:13:38;7.60;;;6.50;;
47912;SDS011;33676;51.006;17.180;2023-01-29T09:16:06;7.10;;;6.40;;
47912;SDS011;33676;51.006;17.180;2023-01-29T09:18:36;8.20;;;6.10;;
47912;SDS011;33676;51.006;17.180;2023-01-29T09:21:05;6.90;;;5.40;;
47912;SDS011;33676;51.006;17.180;2023-01-29T09:23:33;6.60;;;5.80;;
47912;SDS011;33676;51.006;17.180;2023-01-29T09:26:02;6.70;;;6.00;;
47912;SDS011;33676;51.006;17.180;2023-01-29T09:28:31;7.20;;;6.30;;
47912;SDS011;33676;51.006;17.180;2023-01-29T09:31:01;9.40;;;7.30;;
47912;SDS011;33676;51.006;17.180;2023-01-29T09:33:30;9.10;;;6.80;;
47912;SDS011;33676;51.006;17.180;2023-01-29T09:36:01;6.40;;;5.80;;
47912;SDS011;33676;51.006;17.180;2023-01-29T09:38:31;10.90;;;6.90;;
47912;SDS011;33676;51.006;17.180;2023-01-29T09:41:21;7.80;;;7.10;;
47912;SDS011;33676;51.006;17.180;2023-01-29T09:44:04;7.90;;;6.30;;
47912;SDS011;33676;51.006;17.180;2023-01-29T09:46:46;6.00;;;5.40;;
47912;SDS011;33676;51.006;17.180;2023-01-29T09:52:06;13.90;;;8.90;;
47912;SDS011;33676;51.006;17.180;2023-01-29T09:55:04;10.70;;;7.10;;
47912;SDS011;33676;51.006;17.180;2023-01-29T10:00:43;7.90;;;6.30;;
47912;SDS011;33676;51.006;17.180;2023-01-29T10:03:42;12.00;;;8.40;;
47912;SDS011;33676;51.006;17.180;2023-01-29T10:25:15;8.30;;;7.40;;
47912;SDS011;33676;51.006;17.180;2023-01-29T10:27:55;13.30;;;8.40;;
47912;SDS011;33676;51.006;17.180;2023-01-29T10:34:32;11.00;;;8.30;;
47912;SDS011;33676;51.006;17.180;2023-01-29T10:37:16;9.80;;;8.50;;
47912;SDS011;33676;51.006;17.180;2023-01-29T10:39:50;12.50;;;8.80;;
47912;SDS011;33676;51.006;17.180;2023-01-29T10:42:36;11.90;;;8.20;;
47912;SDS011;33676;51.006;17.180;2023-01-29T10:45:45;10.50;;;8.60;;
47912;SDS011;33676;51.006;17.180;2023-01-29T10:51:50;14.30;;;10.00;;
47912;SDS011;33676;51.006;17.180;2023-01-29T10:54:45;13.30;;;9.40;;
47912;SDS011;33676;51.006;17.180;2023-01-29T10:57:55;14.20;;;9.10;;
47912;SDS011;33676;51.006;17.180;2023-01-29T11:00:40;11.60;;;9.40;;
47912;SDS011;33676;51.006;17.180;2023-01-29T11:03:18;9.50;;;8.00;;
47912;SDS011;33676;51.006;17.180;2023-01-29T11:06:08;9.40;;;8.30;;
47912;SDS011;33676;51.006;17.180;2023-01-29T11:12:27;9.30;;;7.90;;
47912;SDS011;33676;51.006;17.180;2023-01-29T11:15:21;10.00;;;8.80;;
47912;SDS011;33676;51.006;17.180;2023-01-29T11:18:06;13.00;;;10.00;;
47912;SDS011;33676;51.006;17.180;2023-01-29T11:20:44;11.20;;;8.90;;
47912;SDS011;33676;51.006;17.180;2023-01-29T11:23:26;12.40;;;9.70;;
47912;SDS011;33676;51.006;17.180;2023-01-29T11:25:58;14.60;;;11.50;;
47912;SDS011;33676;51.006;17.180;2023-01-29T11:28:41;12.90;;;10.50;;
47912;SDS011;33676;51.006;17.180;2023-01-29T11:31:26;13.60;;;10.30;;
47912;SDS011;33676;51.006;17.180;2023-01-29T11:34:18;12.70;;;9.90;;
47912;SDS011;33676;51.006;17.180;2023-01-29T11:37:03;12.40;;;9.90;;
47912;SDS011;33676;51.006;17.180;2023-01-29T11:39:43;13.40;;;10.00;;
47912;SDS011;33676;51.006;17.180;2023-01-29T11:42:21;13.70;;;10.50;;
47912;SDS011;33676;51.006;17.180;2023-01-29T11:44:50;12.70;;;10.50;;
47912;SDS011;33676;51.006;17.180;2023-01-29T11:47:20;16.40;;;12.40;;
47912;SDS011;33676;51.006;17.180;2023-01-29T11:49:57;14.10;;;10.90;;
47912;SDS011;33676;51.006;17.180;2023-01-29T11:52:36;18.40;;;13.10;;
47912;SDS011;33676;51.006;17.180;2023-01-29T11:55:13;14.70;;;10.60;;
47912;SDS011;33676;51.006;17.180;2023-01-29T11:57:45;19.20;;;12.40;;
47912;SDS011;33676;51.006;17.180;2023-01-29T12:00:27;14.50;;;9.30;;
47912;SDS011;33676;51.006;17.180;2023-01-29T12:03:33;13.70;;;10.50;;
47912;SDS011;33676;51.006;17.180;2023-01-29T12:19:09;11.80;;;10.50;;
47912;SDS011;33676;51.006;17.180;2023-01-29T12:22:10;11.30;;;9.60;;
47912;SDS011;33676;51.006;17.180;2023-01-29T12:25:54;13.50;;;10.50;;
47912;SDS011;33676;51.006;17.180;2023-01-29T12:27:59;16.50;;;10.90;;
47912;SDS011;33676;51.006;17.180;2023-01-29T12:37:02;12.50;;;8.20;;
47912;SDS011;33676;51.006;17.180;2023-01-29T12:39:39;11.90;;;8.70;;
47912;SDS011;33676;51.006;17.180;2023-01-29T12:42:18;11.30;;;9.60;;
47912;SDS011;33676;51.006;17.180;2023-01-29T12:45:01;8.30;;;7.30;;
47912;SDS011;33676;51.006;17.180;2023-01-29T12:47:40;10.30;;;9.20;;
47912;SDS011;33676;51.006;17.180;2023-01-29T12:53:33;10.80;;;7.70;;
47912;SDS011;33676;51.006;17.180;2023-01-29T12:56:57;12.70;;;8.90;;
47912;SDS011;33676;51.006;17.180;2023-01-29T12:59:45;12.20;;;8.40;;
47912;SDS011;33676;51.006;17.180;2023-01-29T13:03:26;11.10;;;8.20;;
47912;SDS011;33676;51.006;17.180;2023-01-29T13:06:14;10.00;;;7.30;;
47912;SDS011;33676;51.006;17.180;2023-01-29T13:08:53;10.80;;;9.60;;
47912;SDS011;33676;51.006;17.180;2023-01-29T13:11:44;8.60;;;6.30;;
47912;SDS011;33676;51.006;17.180;2023-01-29T13:15:20;11.30;;;8.10;;
47912;SDS011;33676;51.006;17.180;2023-01-29T13:18:56;9.90;;;7.60;;
47912;SDS011;33676;51.006;17.180;2023-01-29T13:22:19;12.50;;;7.90;;
47912;SDS011;33676;51.006;17.180;2023-01-29T13:25:00;9.50;;;7.80;;
47912;SDS011;33676;51.006;17.180;2023-01-29T13:27:33;10.90;;;8.00;;
47912;SDS011;33676;51.006;17.180;2023-01-29T13:30:05;10.70;;;9.60;;
47912;SDS011;33676;51.006;17.180;2023-01-29T13:32:57;10.30;;;7.80;;
47912;SDS011;33676;51.006;17.180;2023-01-29T13:35:40;9.50;;;8.10;;
47912;SDS011;33676;51.006;17.180;2023-01-29T13:38:29;14.60;;;9.50;;
47912;SDS011;33676;51.006;17.180;2023-01-29T13:41:03;10.90;;;8.20;;
47912;SDS011;33676;51.006;17.180;2023-01-29T13:43:37;13.10;;;8.50;;
47912;SDS011;33676;51.006;17.180;2023-01-29T13:46:13;13.70;;;8.80;;
47912;SDS011;33676;51.006;17.180;2023-01-29T13:49:10;12.30;;;7.70;;
47912;SDS011;33676;51.006;17.180;2023-01-29T13:51:53;12.80;;;8.90;;
47912;SDS011;33676;51.006;17.180;2023-01-29T13:54:23;12.20;;;9.70;;
47912;SDS011;33676;51.006;17.180;2023-01-29T13:59:47;13.50;;;10.60;;
47912;SDS011;33676;51.006;17.180;2023-01-29T14:02:25;12.30;;;10.10;;
47912;SDS011;33676;51.006;17.180;2023-01-29T14:10:43;15.20;;;10.80;;
47912;SDS011;33676;51.006;17.180;2023-01-29T14:13:24;15.50;;;10.30;;
47912;SDS011;33676;51.006;17.180;2023-01-29T14:19:06;15.90;;;10.90;;
47912;SDS011;33676;51.006;17.180;2023-01-29T14:21:48;11.90;;;9.90;;
47912;SDS011;33676;51.006;17.180;2023-01-29T14:24:22;21.40;;;12.00;;
47912;SDS011;33676;51.006;17.180;2023-01-29T14:27:03;12.50;;;10.40;;
47912;SDS011;33676;51.006;17.180;2023-01-29T14:29:51;16.00;;;11.40;;
47912;SDS011;33676;51.006;17.180;2023-01-29T14:32:28;12.70;;;9.60;;
47912;SDS011;33676;51.006;17.180;2023-01-29T14:35:23;16.70;;;10.00;;
47912;SDS011;33676;51.006;17.180;2023-01-29T14:37:57;15.80;;;11.00;;
47912;SDS011;33676;51.006;17.180;2023-01-29T14:40:33;13.70;;;10.20;;
47912;SDS011;33676;51.006;17.180;2023-01-29T14:43:18;11.10;;;8.60;;
47912;SDS011;33676;51.006;17.180;2023-01-29T14:45:50;13.40;;;10.50;;
47912;SDS011;33676;51.006;17.180;2023-01-29T14:51:09;11.60;;;9.80;;
47912;SDS011;33676;51.006;17.180;2023-01-29T14:54:13;14.40;;;11.20;;
47912;SDS011;33676;51.006;17.180;2023-01-29T14:56:59;15.60;;;10.90;;
47912;SDS011;33676;51.006;17.180;2023-01-29T14:59:47;28.70;;;21.00;;
47912;SDS011;33676;51.006;17.180;2023-01-29T15:08:46;25.30;;;16.10;;
47912;SDS011;33676;51.006;17.180;2023-01-29T15:11:49;41.10;;;23.80;;
47912;SDS011;33676;51.006;17.180;2023-01-29T15:14:48;29.20;;;17.10;;
47912;SDS011;33676;51.006;17.180;2023-01-29T15:17:36;25.10;;;16.10;;
47912;SDS011;33676;51.006;17.180;2023-01-29T15:20:28;19.90;;;11.90;;
47912;SDS011;33676;51.006;17.180;2023-01-29T15:23:00;23.20;;;15.50;;
47912;SDS011;33676;51.006;17.180;2023-01-29T15:25:35;20.40;;;13.10;;
47912;SDS011;33676;51.006;17.180;2023-01-29T15:28:08;18.90;;;13.20;;
47912;SDS011;33676;51.006;17.180;2023-01-29T15:30:38;19.30;;;13.70;;
47912;SDS011;33676;51.006;17.180;2023-01-29T15:33:08;16.30;;;12.50;;
47912;SDS011;33676;51.006;17.180;2023-01-29T15:35:39;17.70;;;12.20;;
47912;SDS011;33676;51.006;17.180;2023-01-29T15:38:20;18.60;;;13.00;;
47912;SDS011;33676;51.006;17.180;2023-01-29T15:40:58;21.60;;;14.50;;
47912;SDS011;33676;51.006;17.180;2023-01-29T15:43:30;19.10;;;13.40;;
47912;SDS011;33676;51.006;17.180;2023-01-29T15:46:06;23.60;;;14.90;;
47912;SDS011;33676;51.006;17.180;2023-01-29T15:48:41;29.20;;;16.70;;
47912;SDS011;33676;51.006;17.180;2023-01-29T15:51:19;34.60;;;18.80;;
47912;SDS011;33676;51.006;17.180;2023-01-29T15:53:56;34.40;;;18.90;;
47912;SDS011;33676;51.006;17.180;2023-01-29T15:59:14;38.00;;;20.60;;
47912;SDS011;33676;51.006;17.180;2023-01-29T16:01:46;51.10;;;31.90;;
47912;SDS011;33676;51.006;17.180;2023-01-29T16:04:21;41.40;;;30.10;;
47912;SDS011;33676;51.006;17.180;2023-01-29T16:06:54;44.20;;;30.80;;
47912;SDS011;33676;51.006;17.180;2023-01-29T16:09:25;34.30;;;25.40;;
47912;SDS011;33676;51.006;17.180;2023-01-29T16:11:56;30.10;;;22.40;;
47912;SDS011;33676;51.006;17.180;2023-01-29T16:14:25;24.20;;;16.90;;
47912;SDS011;33676;51.006;17.180;2023-01-29T16:16:55;31.70;;;20.60;;
47912;SDS011;33676;51.006;17.180;2023-01-29T16:19:26;23.50;;;17.80;;
47912;SDS011;33676;51.006;17.180;2023-01-29T16:22:00;31.10;;;23.80;;
47912;SDS011;33676;51.006;17.180;2023-01-29T16:24:33;24.40;;;18.00;;
47912;SDS011;33676;51.006;17.180;2023-01-29T16:27:11;25.00;;;18.80;;
47912;SDS011;33676;51.006;17.180;2023-01-29T16:29:41;24.10;;;17.80;;
47912;SDS011;33676;51.006;17.180;2023-01-29T16:32:10;23.00;;;16.30;;
47912;SDS011;33676;51.006;17.180;2023-01-29T16:34:42;25.10;;;17.90;;
47912;SDS011;33676;51.006;17.180;2023-01-29T16:37:20;23.60;;;18.00;;
47912;SDS011;33676;51.006;17.180;2023-01-29T16:40:32;28.40;;;20.30;;
47912;SDS011;33676;51.006;17.180;2023-01-29T16:46:24;24.10;;;17.80;;
47912;SDS011;33676;51.006;17.180;2023-01-29T16:52:15;24.00;;;18.80;;
47912;SDS011;33676;51.006;17.180;2023-01-29T16:54:44;26.40;;;20.20;;
47912;SDS011;33676;51.006;17.180;2023-01-29T16:57:24;38.00;;;23.10;;
47912;SDS011;33676;51.006;17.180;2023-01-29T17:00:24;48.90;;;27.80;;
47912;SDS011;33676;51.006;17.180;2023-01-29T17:05:35;28.90;;;20.10;;
47912;SDS011;33676;51.006;17.180;2023-01-29T17:08:12;25.90;;;21.00;;
47912;SDS011;33676;51.006;17.180;2023-01-29T17:10:50;30.30;;;20.00;;
47912;SDS011;33676;51.006;17.180;2023-01-29T17:16:52;26.10;;;21.40;;
47912;SDS011;33676;51.006;17.180;2023-01-29T17:19:23;28.50;;;19.50;;
47912;SDS011;33676;51.006;17.180;2023-01-29T17:22:13;26.50;;;20.10;;
47912;SDS011;33676;51.006;17.180;2023-01-29T17:24:46;27.90;;;19.80;;
47912;SDS011;33676;51.006;17.180;2023-01-29T17:27:20;27.00;;;19.50;;
47912;SDS011;33676;51.006;17.180;2023-01-29T17:29:49;28.50;;;20.70;;
47912;SDS011;33676;51.006;17.180;2023-01-29T17:32:22;29.20;;;21.30;;
47912;SDS011;33676;51.006;17.180;2023-01-29T17:35:11;31.80;;;24.10;;
47912;SDS011;33676;51.006;17.180;2023-01-29T17:37:41;36.80;;;24.50;;